Time,TemperatureF,DewpointF,PressureIn,WindDirection,WindDirectionDegrees,WindSpeedMPH,WindSpeedGustMPH,Humidity,HourlyPrecipIn,Conditions,Clouds,dailyrainin,SoftwareType,DateUTC
2013-05-21 00:10:00,47.6,41.0,29.88,South,173,0.0,3.0,77,0.00,,,0.00,weatherlink.com 1.10,2013-05-21 06:10:00,
2013-05-21 00:25:00,47.6,41.0,29.89,SW,227,0.0,2.0,77,0.00,,,0.00,weatherlink.com 1.10,2013-05-21 06:25:00,
2013-05-21 00:40:00,46.9,40.0,29.88,South,171,0.0,2.0,78,0.00,,,0.00,weatherlink.com 1.10,2013-05-21 06:40:00,
2013-05-21 00:55:00,46.2,40.0,29.87,South,171,0.0,3.0,80,0.00,,,0.00,weatherlink.com 1.10,2013-05-21 06:55:00,
2013-05-21 01:10:00,45.8,40.0,29.87,South,171,0.0,1.0,80,0.00,,,0.00,weatherlink.com 1.10,2013-05-21 07:10:00,
2013-05-21 01:25:00,45.3,40.0,29.87,South,171,0.0,1.0,81,0.00,,,0.00,weatherlink.com 1.10,2013-05-21 07:25:00,
2013-05-21 01:40:00,44.2,39.0,29.87,South,171,0.0,0.0,83,0.00,,,0.00,weatherlink.com 1.10,2013-05-21 07:40:00,
2013-05-21 01:55:00,43.3,39.0,29.87,South,171,0.0,0.0,85,0.00,,,0.00,weatherlink.com 1.10,2013-05-21 07:55:00,
2013-05-21 02:10:00,42.7,38.0,29.88,South,171,0.0,0.0,84,0.00,,,0.00,weatherlink.com 1.10,2013-05-21 08:10:00,
2013-05-21 02:25:00,41.9,38.0,29.88,South,171,0.0,0.0,86,0.00,,,0.00,weatherlink.com 1.10,2013-05-21 08:25:00,
2013-05-21 02:40:00,41.3,38.0,29.88,South,171,0.0,1.0,87,0.00,,,0.00,weatherlink.com 1.10,2013-05-21 08:40:00,
2013-05-21 02:55:00,40.8,38.0,29.88,South,171,0.0,0.0,88,0.00,,,0.00,weatherlink.com 1.10,2013-05-21 08:55:00,
2013-05-21 03:10:00,40.5,37.0,29.88,South,171,0.0,0.0,88,0.00,,,0.00,weatherlink.com 1.10,2013-05-21 09:10:00,
2013-05-21 03:25:00,40.1,37.0,29.89,South,171,0.0,0.0,89,0.00,,,0.00,weatherlink.com 1.10,2013-05-21 09:25:00,
2013-05-21 03:40:00,39.8,37.0,29.89,South,171,0.0,0.0,89,0.00,,,0.00,weatherlink.com 1.10,2013-05-21 09:40:00,
2013-05-21 03:55:00,39.4,37.0,29.90,South,171,0.0,0.0,89,0.00,,,0.00,weatherlink.com 1.10,2013-05-21 09:55:00,
2013-05-21 04:10:00,39.6,37.0,29.90,South,171,1.0,1.0,91,0.00,,,0.00,weatherlink.com 1.10,2013-05-21 10:10:00,
2013-05-21 04:25:00,39.9,38.0,29.90,South,171,0.0,0.0,91,0.00,,,0.00,weatherlink.com 1.10,2013-05-21 10:25:00,
2013-05-21 04:40:00,40.5,38.0,29.90,South,171,0.0,1.0,91,0.00,,,0.00,weatherlink.com 1.10,2013-05-21 10:40:00,
2013-05-21 04:55:00,40.6,38.0,29.91,South,171,0.0,0.0,91,0.00,,,0.00,weatherlink.com 1.10,2013-05-21 10:55:00,
2013-05-21 05:10:00,40.4,38.0,29.91,South,171,0.0,0.0,90,0.00,,,0.00,weatherlink.com 1.10,2013-05-21 11:10:00,
2013-05-21 05:25:00,40.0,37.0,29.92,South,171,0.0,0.0,90,0.00,,,0.00,weatherlink.com 1.10,2013-05-21 11:25:00,
2013-05-21 05:40:00,39.7,37.0,29.92,South,171,0.0,0.0,90,0.00,,,0.00,weatherlink.com 1.10,2013-05-21 11:40:00,
2013-05-21 05:55:00,39.2,37.0,29.92,South,171,0.0,1.0,91,0.00,,,0.00,weatherlink.com 1.10,2013-05-21 11:55:00,
2013-05-21 06:11:00,39.3,37.0,29.93,South,171,0.0,0.0,91,0.00,,,0.00,weatherlink.com 1.10,2013-05-21 12:11:00,
2013-05-21 06:26:00,39.1,35.0,29.93,South,171,0.0,3.0,84,0.00,,,0.00,weatherlink.com 1.10,2013-05-21 12:26:00,
2013-05-21 06:41:00,41.1,33.0,29.94,South,171,1.0,3.0,74,0.00,,,0.00,weatherlink.com 1.10,2013-05-21 12:41:00,
2013-05-21 06:56:00,42.8,33.0,29.94,South,173,1.0,3.0,69,0.00,,,0.00,weatherlink.com 1.10,2013-05-21 12:56:00,
2013-05-21 07:12:00,44.0,34.0,29.95,SSE,161,0.0,4.0,67,0.00,,,0.00,weatherlink.com 1.10,2013-05-21 13:12:00,
2013-05-21 07:26:00,45.0,36.0,29.95,SSE,168,0.0,3.0,71,0.00,,,0.00,weatherlink.com 1.10,2013-05-21 13:26:00,
2013-05-21 07:41:00,46.4,37.0,29.95,SSE,163,0.0,3.0,71,0.00,,,0.00,weatherlink.com 1.10,2013-05-21 13:41:00,
2013-05-21 07:56:00,47.7,38.0,29.95,SSE,163,0.0,2.0,69,0.00,,,0.00,weatherlink.com 1.10,2013-05-21 13:56:00,
2013-05-21 08:11:00,49.0,38.0,29.95,SSE,163,0.0,5.0,65,0.00,,,0.00,weatherlink.com 1.10,2013-05-21 14:11:00,
2013-05-21 08:26:00,49.8,37.0,29.94,SSW,196,1.0,5.0,62,0.00,,,0.00,weatherlink.com 1.10,2013-05-21 14:26:00,
2013-05-21 08:41:00,51.5,37.0,29.94,SE,140,3.0,4.0,58,0.00,,,0.00,weatherlink.com 1.10,2013-05-21 14:41:00,
2013-05-21 08:56:00,53.4,37.0,29.94,SE,131,2.0,4.0,54,0.00,,,0.00,weatherlink.com 1.10,2013-05-21 14:56:00,
2013-05-21 09:11:00,54.4,35.0,29.93,SE,129,4.0,6.0,49,0.00,,,0.00,weatherlink.com 1.10,2013-05-21 15:11:00,
2013-05-21 09:26:00,55.0,34.0,29.93,SE,143,2.0,5.0,46,0.00,,,0.00,weatherlink.com 1.10,2013-05-21 15:26:00,
2013-05-21 09:41:00,55.5,34.0,29.92,SSW,202,2.0,6.0,44,0.00,,,0.00,weatherlink.com 1.10,2013-05-21 15:41:00,
2013-05-21 09:56:00,56.0,35.0,29.91,SE,130,0.0,6.0,46,0.00,,,0.00,weatherlink.com 1.10,2013-05-21 15:56:00,
2013-05-21 10:11:00,57.1,33.0,29.90,NE,39,0.0,4.0,41,0.00,,,0.00,weatherlink.com 1.10,2013-05-21 16:11:00,
2013-05-21 10:26:00,58.2,36.0,29.90,SE,132,2.0,6.0,43,0.00,,,0.00,weatherlink.com 1.10,2013-05-21 16:26:00,
2013-05-21 10:41:00,59.0,36.0,29.89,NE,55,1.0,4.0,43,0.00,,,0.00,weatherlink.com 1.10,2013-05-21 16:41:00,
2013-05-21 10:56:00,60.6,34.0,29.88,ENE,77,0.0,7.0,37,0.00,,,0.00,weatherlink.com 1.10,2013-05-21 16:56:00,
2013-05-21 11:11:00,61.4,33.0,29.87,NE,47,1.0,8.0,35,0.00,,,0.00,weatherlink.com 1.10,2013-05-21 17:11:00,
2013-05-21 11:26:00,61.2,35.0,29.87,ENE,58,2.0,6.0,37,0.00,,,0.00,weatherlink.com 1.10,2013-05-21 17:26:00,
2013-05-21 11:41:00,61.9,34.0,29.86,NNE,26,0.0,5.0,35,0.00,,,0.00,weatherlink.com 1.10,2013-05-21 17:41:00,
2013-05-21 11:57:00,63.8,32.0,29.85,NNE,17,4.0,7.0,31,0.00,,,0.00,weatherlink.com 1.10,2013-05-21 17:57:00,
2013-05-21 12:12:00,63.7,29.0,29.84,North,5,4.0,16.0,27,0.00,,,0.00,weatherlink.com 1.10,2013-05-21 18:12:00,
2013-05-21 12:42:00,64.8,31.0,29.83,NNW,346,5.0,15.0,28,0.00,,,0.00,weatherlink.com 1.10,2013-05-21 18:42:00,
2013-05-21 12:57:00,64.3,30.0,29.82,North,9,4.0,13.0,28,0.00,,,0.00,weatherlink.com 1.10,2013-05-21 18:57:00,
2013-05-21 13:12:00,64.1,30.0,29.82,NNW,346,7.0,9.0,28,0.00,,,0.00,weatherlink.com 1.10,2013-05-21 19:12:00,
2013-05-21 13:27:00,64.9,28.0,29.82,NW,316,3.0,11.0,25,0.00,,,0.00,weatherlink.com 1.10,2013-05-21 19:27:00,
2013-05-21 13:42:00,65.9,27.0,29.82,North,360,6.0,12.0,23,0.00,,,0.00,weatherlink.com 1.10,2013-05-21 19:42:00,
2013-05-21 13:57:00,66.8,30.0,29.80,NW,319,5.0,13.0,25,0.00,,,0.00,weatherlink.com 1.10,2013-05-21 19:57:00,
2013-05-21 14:12:00,66.6,28.0,29.79,NNW,334,8.0,13.0,23,0.00,,,0.00,weatherlink.com 1.10,2013-05-21 20:12:00,
2013-05-21 14:27:00,66.7,28.0,29.79,West,259,4.0,15.0,23,0.00,,,0.00,weatherlink.com 1.10,2013-05-21 20:27:00,
2013-05-21 14:42:00,68.1,27.0,29.78,North,9,4.0,9.0,21,0.00,,,0.00,weatherlink.com 1.10,2013-05-21 20:42:00,
2013-05-21 14:57:00,68.6,27.0,29.78,North,9,6.0,11.0,21,0.00,,,0.00,weatherlink.com 1.10,2013-05-21 20:57:00,
2013-05-21 15:12:00,69.1,26.0,29.78,NNE,13,2.0,9.0,20,0.00,,,0.00,weatherlink.com 1.10,2013-05-21 21:12:00,
2013-05-21 15:27:00,70.0,26.0,29.77,North,5,4.0,12.0,19,0.00,,,0.00,weatherlink.com 1.10,2013-05-21 21:27:00,
2013-05-21 15:42:00,68.9,27.0,29.77,NNE,16,4.0,12.0,21,0.00,,,0.00,weatherlink.com 1.10,2013-05-21 21:42:00,
2013-05-21 15:57:00,67.9,28.0,29.76,North,350,2.0,8.0,22,0.00,,,0.00,weatherlink.com 1.10,2013-05-21 21:57:00,
2013-05-21 16:12:00,67.6,27.0,29.76,NE,39,5.0,10.0,22,0.00,,,0.00,weatherlink.com 1.10,2013-05-21 22:12:00,
2013-05-21 16:27:00,67.6,28.0,29.76,NE,40,6.0,9.0,23,0.00,,,0.00,weatherlink.com 1.10,2013-05-21 22:27:00,
2013-05-21 16:42:00,68.5,31.0,29.76,NNW,330,2.0,7.0,25,0.00,,,0.00,weatherlink.com 1.10,2013-05-21 22:42:00,
2013-05-21 16:57:00,69.2,28.0,29.75,NE,39,4.0,8.0,21,0.00,,,0.00,weatherlink.com 1.10,2013-05-21 22:57:00,
2013-05-21 17:12:00,69.2,25.0,29.75,NNW,335,3.0,7.0,19,0.00,,,0.00,weatherlink.com 1.10,2013-05-21 23:12:00,
2013-05-21 17:27:00,69.3,28.0,29.75,NNE,26,1.0,8.0,21,0.00,,,0.00,weatherlink.com 1.10,2013-05-21 23:27:00,
2013-05-21 17:42:00,67.8,27.0,29.75,North,360,5.0,6.0,22,0.00,,,0.00,weatherlink.com 1.10,2013-05-21 23:42:00,
2013-05-21 17:57:00,67.2,30.0,29.75,NE,37,3.0,8.0,25,0.00,,,0.00,weatherlink.com 1.10,2013-05-21 23:57:00,
2013-05-21 18:12:00,66.6,31.0,29.74,ENE,73,1.0,7.0,26,0.00,,,0.00,weatherlink.com 1.10,2013-05-22 00:12:00,
2013-05-21 18:27:00,67.4,30.0,29.74,NNE,26,3.0,9.0,25,0.00,,,0.00,weatherlink.com 1.10,2013-05-22 00:27:00,
2013-05-21 18:42:00,66.7,30.0,29.75,NE,53,2.0,9.0,25,0.00,,,0.00,weatherlink.com 1.10,2013-05-22 00:42:00,
2013-05-21 18:57:00,65.2,29.0,29.75,NNE,26,4.0,10.0,26,0.00,,,0.00,weatherlink.com 1.10,2013-05-22 00:57:00,
2013-05-21 19:12:00,65.1,28.0,29.76,NNE,25,4.0,6.0,25,0.00,,,0.00,weatherlink.com 1.10,2013-05-22 01:12:00,
2013-05-21 19:27:00,65.1,29.0,29.76,North,5,8.0,11.0,26,0.00,,,0.00,weatherlink.com 1.10,2013-05-22 01:27:00,
2013-05-21 19:42:00,64.8,30.0,29.77,ENE,57,1.0,7.0,27,0.00,,,0.00,weatherlink.com 1.10,2013-05-22 01:42:00,
2013-05-21 19:57:00,64.0,29.0,29.78,NE,38,5.0,7.0,27,0.00,,,0.00,weatherlink.com 1.10,2013-05-22 01:57:00,
2013-05-21 20:12:00,63.4,29.0,29.78,NE,37,5.0,6.0,27,0.00,,,0.00,weatherlink.com 1.10,2013-05-22 02:12:00,
2013-05-21 20:27:00,62.7,30.0,29.79,NE,35,0.0,0.0,29,0.00,,,0.00,weatherlink.com 1.10,2013-05-22 02:27:00,
2013-05-21 20:42:00,61.9,30.0,29.80,NE,35,0.0,1.0,30,0.00,,,0.00,weatherlink.com 1.10,2013-05-22 02:42:00,
2013-05-21 20:57:00,61.4,33.0,29.80,NE,35,0.0,0.0,34,0.00,,,0.00,weatherlink.com 1.10,2013-05-22 02:57:00,
2013-05-21 21:12:00,60.0,36.0,29.81,NE,35,0.0,0.0,41,0.00,,,0.00,weatherlink.com 1.10,2013-05-22 03:12:00,
2013-05-21 21:27:00,58.6,37.0,29.80,NE,35,0.0,0.0,44,0.00,,,0.00,weatherlink.com 1.10,2013-05-22 03:27:00,
2013-05-21 21:42:00,57.9,38.0,29.81,NE,35,0.0,0.0,47,0.00,,,0.00,weatherlink.com 1.10,2013-05-22 03:42:00,
2013-05-21 21:57:00,56.8,39.0,29.81,NE,35,0.0,0.0,51,0.00,,,0.00,weatherlink.com 1.10,2013-05-22 03:57:00,
2013-05-21 22:12:00,56.0,35.0,29.82,NNE,24,0.0,3.0,45,0.00,,,0.00,weatherlink.com 1.10,2013-05-22 04:12:00,
2013-05-21 22:27:00,57.4,31.0,29.82,NE,38,3.0,6.0,37,0.00,,,0.00,weatherlink.com 1.10,2013-05-22 04:27:00,
2013-05-21 22:42:00,57.3,31.0,29.83,ENE,73,1.0,6.0,37,0.00,,,0.00,weatherlink.com 1.10,2013-05-22 04:42:00,
2013-05-21 22:57:00,56.6,31.0,29.83,ENE,71,0.0,6.0,38,0.00,,,0.00,weatherlink.com 1.10,2013-05-22 04:57:00,
2013-05-21 23:12:00,55.7,32.0,29.84,ENE,71,0.0,1.0,41,0.00,,,0.00,weatherlink.com 1.10,2013-05-22 05:12:00,
2013-05-21 23:27:00,54.4,33.0,29.84,ENE,71,0.0,1.0,44,0.00,,,0.00,weatherlink.com 1.10,2013-05-22 05:27:00,
2013-05-21 23:42:00,53.3,32.0,29.84,ENE,71,0.0,1.0,45,0.00,,,0.00,weatherlink.com 1.10,2013-05-22 05:42:00,
2013-05-21 23:57:00,52.6,32.0,29.84,ENE,71,0.0,1.0,46,0.00,,,0.00,weatherlink.com 1.10,2013-05-22 05:57:00,